createdAt,value
2023-01-13T00:00:20.608Z,34.30
2023-01-13T00:00:43.876Z,34.70
2023-01-13T00:01:07.708Z,34.78
2023-01-13T00:01:30.432Z,35.72
2023-01-13T00:01:53.177Z,34.28
2023-01-13T00:02:15.987Z,32.95
2023-01-13T00:02:40.293Z,36.22
2023-01-13T00:03:03.209Z,36.20
2023-01-13T00:03:25.984Z,34.85
2023-01-13T00:03:48.709Z,34.40
2023-01-13T00:04:14.373Z,37.75
2023-01-13T00:04:37.118Z,39.20
2023-01-13T00:04:59.864Z,35.70
2023-01-13T00:05:22.677Z,36.13
2023-01-13T00:05:45.453Z,40.67
2023-01-13T00:06:09.303Z,38.58
2023-01-13T00:06:32.090Z,34.38
2023-01-13T00:06:54.818Z,34.72
2023-01-13T00:07:17.637Z,35.72
2023-01-13T00:07:40.392Z,38.15
2023-01-13T00:08:05.314Z,35.28
2023-01-13T00:08:28.130Z,36.50
2023-01-13T00:08:50.950Z,34.13
2023-01-13T00:09:13.807Z,36.03
2023-01-13T00:09:36.571Z,39.20
2023-01-13T00:09:59.288Z,36.72
2023-01-13T00:10:22.120Z,37.10
2023-01-13T00:10:47.865Z,34.42
2023-01-13T00:11:10.596Z,33.78
2023-01-13T00:11:34.374Z,36.40
2023-01-13T00:11:57.106Z,35.58
2023-01-13T00:12:19.867Z,37.85
2023-01-13T00:12:43.543Z,37.85
2023-01-13T00:13:06.329Z,37.28
2023-01-13T00:13:29.201Z,39.05
2023-01-13T00:13:51.909Z,37.17
2023-01-13T00:14:14.647Z,35.72
2023-01-13T00:14:37.456Z,32.15
2023-01-13T00:15:00.286Z,39.67
2023-01-13T00:15:23.054Z,40.53
2023-01-13T00:15:45.773Z,39.08
2023-01-13T00:16:10.664Z,37.65
2023-01-13T00:16:33.465Z,40.70
2023-01-13T00:16:56.214Z,39.65
2023-01-13T00:17:19.054Z,39.65
2023-01-13T00:17:43.345Z,38.58
2023-01-13T00:18:06.315Z,41.88
2023-01-13T00:18:29.008Z,43.78
2023-01-13T00:18:51.765Z,41.08
2023-01-13T00:19:14.579Z,40.90
2023-01-13T00:19:39.771Z,41.15
2023-01-13T00:20:02.576Z,41.97
2023-01-13T00:20:25.429Z,42.58
2023-01-13T00:20:48.208Z,41.63
2023-01-13T00:21:13.090Z,43.60
2023-01-13T00:21:36.602Z,42.92
2023-01-13T00:21:59.390Z,43.47
2023-01-13T00:22:22.097Z,42.95
2023-01-13T00:22:44.883Z,42.03
2023-01-13T00:23:07.639Z,40.88
2023-01-13T00:23:31.265Z,44.20
2023-01-13T00:23:54.941Z,44.60
2023-01-13T00:24:17.752Z,41.10
2023-01-13T00:24:40.543Z,42.15
2023-01-13T00:25:04.407Z,45.88
2023-01-13T00:25:27.254Z,45.80
2023-01-13T00:25:49.950Z,43.13
2023-01-13T00:26:14.249Z,44.13
2023-01-13T00:26:36.984Z,40.83
2023-01-13T00:26:59.725Z,45.40
2023-01-13T00:27:25.053Z,49.22
2023-01-13T00:27:47.695Z,45.58
2023-01-13T00:28:10.544Z,46.72
2023-01-13T00:28:33.414Z,42.50
2023-01-13T00:28:56.822Z,41.97
2023-01-13T00:29:19.849Z,40.83
2023-01-13T00:29:42.633Z,41.28
2023-01-13T00:30:07.696Z,41.85
2023-01-13T00:30:30.391Z,38.28
2023-01-13T00:30:53.359Z,41.40
2023-01-13T00:31:18.334Z,39.83
2023-01-13T00:31:41.293Z,42.53
2023-01-13T00:32:04.364Z,42.05
2023-01-13T00:32:27.071Z,43.20
2023-01-13T00:32:51.329Z,44.45
2023-01-13T00:33:14.109Z,42.67
2023-01-13T00:33:36.878Z,38.80
2023-01-13T00:34:00.452Z,39.50
2023-01-13T00:34:23.295Z,39.33
2023-01-13T00:34:46.067Z,37.55
2023-01-13T00:35:09.261Z,37.35
2023-01-13T00:35:32.056Z,41.40
2023-01-13T00:35:58.210Z,42.00
2023-01-13T00:36:21.065Z,40.05
2023-01-13T00:36:43.849Z,39.10
2023-01-13T00:37:06.588Z,43.95
2023-01-13T00:37:29.418Z,44.30
2023-01-13T00:37:52.150Z,46.88
2023-01-13T00:38:14.890Z,44.15
2023-01-13T00:38:38.984Z,43.15
2023-01-13T00:39:01.836Z,41.75
2023-01-13T00:39:24.586Z,41.53
2023-01-13T00:39:47.374Z,40.08
2023-01-13T00:40:12.220Z,39.00
2023-01-13T00:40:37.492Z,38.80
2023-01-13T00:41:00.915Z,40.42
2023-01-13T00:41:24.543Z,41.17
2023-01-13T00:42:14.735Z,40.28
2023-01-13T00:42:56.363Z,39.00
2023-01-13T00:43:24.759Z,40.83
2023-01-13T00:43:48.693Z,42.85
2023-01-13T00:44:11.428Z,44.47
2023-01-13T00:44:34.174Z,42.85
2023-01-13T00:44:56.992Z,45.42
2023-01-13T00:45:19.749Z,44.10
2023-01-13T00:45:42.511Z,42.50
2023-01-13T00:46:06.195Z,43.70
2023-01-13T00:46:29.427Z,43.78
2023-01-13T00:46:52.398Z,43.35
2023-01-13T00:47:15.236Z,43.78
2023-01-13T00:47:38.029Z,40.42
2023-01-13T00:48:02.161Z,40.28
2023-01-13T00:48:25.240Z,40.97
2023-01-13T00:48:48.399Z,43.08
2023-01-13T00:49:11.302Z,42.60
2023-01-13T00:49:34.140Z,46.80
2023-01-13T00:49:56.914Z,47.08
2023-01-13T00:50:19.695Z,41.65
2023-01-13T00:50:42.524Z,42.47
2023-01-13T00:51:06.990Z,43.00
2023-01-13T00:51:29.744Z,40.70
2023-01-13T00:51:52.509Z,42.00
2023-01-13T00:52:15.209Z,45.47
2023-01-13T00:52:42.267Z,43.28
2023-01-13T00:53:05.140Z,42.67
2023-01-13T00:53:28.119Z,42.38
2023-01-13T00:53:51.368Z,43.03
2023-01-13T00:54:14.265Z,42.25
2023-01-13T00:54:36.997Z,43.25
2023-01-13T00:55:01.007Z,45.15
2023-01-13T00:55:23.809Z,41.50
2023-01-13T00:55:46.550Z,42.72
2023-01-13T00:56:11.528Z,41.90
2023-01-13T00:56:40.170Z,41.25
2023-01-13T00:57:04.494Z,42.53
2023-01-13T00:57:27.218Z,41.38
2023-01-13T00:57:49.931Z,40.20
2023-01-13T00:58:12.644Z,43.47
2023-01-13T00:58:35.629Z,41.92
2023-01-13T00:58:59.084Z,41.55
2023-01-13T00:59:21.825Z,37.40
2023-01-13T00:59:44.536Z,39.58
2023-01-13T01:00:10.579Z,40.67
2023-01-13T01:00:33.510Z,40.33
2023-01-13T01:00:59.797Z,46.95
2023-01-13T01:01:23.473Z,38.03
2023-01-13T01:01:46.606Z,35.75
2023-01-13T01:02:09.889Z,39.15
2023-01-13T01:02:32.875Z,38.78
2023-01-13T01:02:55.678Z,40.80
2023-01-13T01:03:19.860Z,36.90
2023-01-13T01:03:42.565Z,37.10
2023-01-13T01:04:05.575Z,39.20
2023-01-13T01:04:28.334Z,40.67
2023-01-13T01:04:51.118Z,39.58
2023-01-13T01:05:14.071Z,38.83
2023-01-13T01:05:36.815Z,36.17
2023-01-13T01:06:04.812Z,36.90
2023-01-13T01:06:27.955Z,35.38
2023-01-13T01:06:51.025Z,36.40
2023-01-13T01:07:13.761Z,40.30
2023-01-13T01:07:36.512Z,39.08
2023-01-13T01:07:59.287Z,40.10
2023-01-13T01:08:21.991Z,40.10
2023-01-13T01:08:44.709Z,42.95
2023-01-13T01:09:07.722Z,36.85
2023-01-13T01:09:33.642Z,36.90
2023-01-13T01:09:56.345Z,37.80
2023-01-13T01:10:19.201Z,35.78
2023-01-13T01:10:41.881Z,38.67
2023-01-13T01:11:05.025Z,37.25
2023-01-13T01:11:28.713Z,36.92
2023-01-13T01:11:51.462Z,38.72
2023-01-13T01:12:14.589Z,38.55
2023-01-13T01:12:37.327Z,37.13
2023-01-13T01:13:00.018Z,41.63
2023-01-13T01:13:22.754Z,38.08
2023-01-13T01:13:45.633Z,38.53
2023-01-13T01:14:08.418Z,34.88
2023-01-13T01:14:31.159Z,35.53
2023-01-13T01:14:53.929Z,36.83
2023-01-13T01:15:16.965Z,39.13
2023-01-13T01:15:40.799Z,37.85
2023-01-13T01:16:07.012Z,40.22
2023-01-13T01:16:32.570Z,37.05
2023-01-13T01:16:55.568Z,38.20
2023-01-13T01:17:18.256Z,38.28
2023-01-13T01:17:41.123Z,36.83
2023-01-13T01:18:03.964Z,36.95
2023-01-13T01:18:28.200Z,38.45
2023-01-13T01:18:51.963Z,38.75
2023-01-13T01:19:14.899Z,37.10
2023-01-13T01:19:39.055Z,35.45
2023-01-13T01:20:01.852Z,35.65
2023-01-13T01:20:24.607Z,37.67
2023-01-13T01:20:47.491Z,35.78
2023-01-13T01:21:10.275Z,35.87
2023-01-13T01:21:33.023Z,37.50
2023-01-13T01:21:55.831Z,36.58
2023-01-13T01:22:20.435Z,37.00
2023-01-13T01:22:43.132Z,37.17
2023-01-13T01:23:05.956Z,36.42
2023-01-13T01:23:29.091Z,36.28
2023-01-13T01:23:51.794Z,36.38
2023-01-13T01:24:16.894Z,34.53
2023-01-13T01:24:39.682Z,35.13
2023-01-13T01:25:02.384Z,34.90
2023-01-13T01:25:25.139Z,34.60
2023-01-13T01:25:47.891Z,36.00
2023-01-13T01:26:13.210Z,36.10
2023-01-13T01:26:38.345Z,33.85
2023-01-13T01:27:01.134Z,35.97
2023-01-13T01:27:23.905Z,35.25
2023-01-13T01:27:46.631Z,36.08
2023-01-13T01:28:09.478Z,34.92
2023-01-13T01:28:32.269Z,36.22
2023-01-13T01:28:55.116Z,36.67
2023-01-13T01:29:18.302Z,35.97
2023-01-13T01:29:41.018Z,38.72
2023-01-13T01:30:04.191Z,37.05
2023-01-13T01:30:26.915Z,34.55
2023-01-13T01:30:51.403Z,36.70
2023-01-13T01:31:15.263Z,36.38
2023-01-13T01:31:38.109Z,37.60
2023-01-13T01:32:00.829Z,37.92
2023-01-13T01:32:23.519Z,36.38
2023-01-13T01:32:46.252Z,36.70
2023-01-13T01:33:08.973Z,34.78
2023-01-13T01:33:33.131Z,35.72
2023-01-13T01:33:56.014Z,40.08
2023-01-13T01:34:18.806Z,37.40
2023-01-13T01:34:41.638Z,38.10
2023-01-13T01:35:05.301Z,36.25
2023-01-13T01:35:28.072Z,35.58
2023-01-13T01:35:50.833Z,38.78
2023-01-13T01:36:14.092Z,34.50
2023-01-13T01:36:36.900Z,34.92
2023-01-13T01:37:00.037Z,34.50
2023-01-13T01:37:22.790Z,37.30
2023-01-13T01:37:45.538Z,34.00
2023-01-13T01:38:08.420Z,33.88
2023-01-13T01:38:31.205Z,36.83
2023-01-13T01:38:55.478Z,35.30
2023-01-13T01:39:18.216Z,33.97
2023-01-13T01:39:40.977Z,34.28
2023-01-13T01:40:03.863Z,35.08
2023-01-13T01:40:27.396Z,36.55
2023-01-13T01:40:50.156Z,38.65
2023-01-13T01:41:14.425Z,36.63
2023-01-13T01:41:37.291Z,34.65
2023-01-13T01:42:18.728Z,33.85
2023-01-13T01:43:00.260Z,33.78
2023-01-13T01:44:13.290Z,35.28
2023-01-13T01:44:56.901Z,32.95
2023-01-13T01:45:20.415Z,32.08
2023-01-13T01:45:43.211Z,32.65
2023-01-13T01:46:06.135Z,34.90
2023-01-13T01:46:30.785Z,33.22
2023-01-13T01:46:53.669Z,33.60
2023-01-13T01:47:17.794Z,34.10
2023-01-13T01:47:40.576Z,34.53
2023-01-13T01:48:03.690Z,34.72
2023-01-13T01:48:26.456Z,35.08
2023-01-13T01:48:50.840Z,31.95
2023-01-13T01:49:16.213Z,33.42
2023-01-13T01:49:39.064Z,33.47
2023-01-13T01:50:01.868Z,34.45
2023-01-13T01:50:24.585Z,34.00
2023-01-13T01:50:47.524Z,35.42
2023-01-13T01:51:11.527Z,34.58
2023-01-13T01:51:35.722Z,37.10
2023-01-13T01:51:59.689Z,33.20
2023-01-13T01:52:24.099Z,35.15
2023-01-13T01:52:51.302Z,35.00
2023-01-13T01:53:15.059Z,37.17
2023-01-13T01:53:37.746Z,34.95
2023-01-13T01:54:00.493Z,34.45
2023-01-13T01:54:25.132Z,32.72
2023-01-13T01:54:49.922Z,33.97
2023-01-13T01:55:15.104Z,37.20
2023-01-13T01:55:37.979Z,35.60
2023-01-13T01:56:00.763Z,34.60
2023-01-13T01:56:24.480Z,35.50
2023-01-13T01:56:47.391Z,33.92
2023-01-13T01:57:11.528Z,40.10
2023-01-13T01:57:39.080Z,34.72
2023-01-13T01:58:04.154Z,35.38
2023-01-13T01:58:28.889Z,34.45
2023-01-13T01:58:51.704Z,36.42
2023-01-13T01:59:14.496Z,34.30
2023-01-13T01:59:37.187Z,30.60
2023-01-13T02:00:01.225Z,35.05
2023-01-13T02:00:24.185Z,33.55
2023-01-13T02:00:46.913Z,32.40
2023-01-13T02:01:09.771Z,34.45
2023-01-13T02:01:33.941Z,33.20
2023-01-13T02:01:58.099Z,32.85
2023-01-13T02:02:21.032Z,31.17
2023-01-13T02:02:45.362Z,33.30
2023-01-13T02:03:08.233Z,34.38
2023-01-13T02:03:30.961Z,34.63
2023-01-13T02:03:58.093Z,35.55
2023-01-13T02:04:24.226Z,33.70
2023-01-13T02:04:51.173Z,34.40
2023-01-13T02:05:14.106Z,32.00
2023-01-13T02:05:36.904Z,32.17
2023-01-13T02:05:59.693Z,31.88
2023-01-13T02:06:22.469Z,32.50
2023-01-13T02:06:45.298Z,34.22
2023-01-13T02:07:08.006Z,34.20
2023-01-13T02:07:32.191Z,34.40
2023-01-13T02:07:56.430Z,33.00
2023-01-13T02:08:19.110Z,36.00
2023-01-13T02:08:41.934Z,32.85
2023-01-13T02:09:04.761Z,32.17
2023-01-13T02:09:27.524Z,29.98
2023-01-13T02:09:50.270Z,32.45
2023-01-13T02:10:14.916Z,34.20
2023-01-13T02:10:37.664Z,33.10
2023-01-13T02:11:00.476Z,31.27
2023-01-13T02:11:49.604Z,33.13
2023-01-13T02:12:31.897Z,33.63
2023-01-13T02:12:55.174Z,30.13
2023-01-13T02:13:18.131Z,30.48
2023-01-13T02:13:43.855Z,30.80
2023-01-13T02:14:06.567Z,31.70
2023-01-13T02:14:29.499Z,32.90
2023-01-13T02:14:52.333Z,31.83
2023-01-13T02:15:16.884Z,31.70
2023-01-13T02:15:43.050Z,34.67
2023-01-13T02:16:09.243Z,34.55
2023-01-13T02:16:32.150Z,32.03
2023-01-13T02:17:03.083Z,33.72
2023-01-13T02:17:32.825Z,33.45
2023-01-13T02:18:19.531Z,31.70
2023-01-13T02:18:49.135Z,30.02
2023-01-13T02:19:21.939Z,29.88
2023-01-13T02:20:14.919Z,30.25
2023-01-13T02:20:52.018Z,28.52
2023-01-13T02:21:49.156Z,26.17
2023-01-13T02:22:29.885Z,32.45
2023-01-13T02:23:49.272Z,32.55
2023-01-13T02:24:41.859Z,33.08
2023-01-13T02:25:38.423Z,29.77
2023-01-13T02:26:15.730Z,30.95
2023-01-13T02:27:22.877Z,31.30
2023-01-13T02:28:01.769Z,32.33
2023-01-13T02:29:00.325Z,33.15
2023-01-13T02:29:51.942Z,33.17
2023-01-13T02:30:33.131Z,32.83
2023-01-13T02:31:15.741Z,31.70
2023-01-13T02:31:43.573Z,28.55
2023-01-13T02:32:09.947Z,30.23
2023-01-13T02:32:36.215Z,31.42
2023-01-13T02:33:16.485Z,31.80
2023-01-13T02:33:54.429Z,35.08
2023-01-13T02:34:19.240Z,32.33
2023-01-13T02:34:44.575Z,30.25
2023-01-13T02:35:08.461Z,32.40
2023-01-13T02:35:35.685Z,28.88
2023-01-13T02:36:00.974Z,30.17
2023-01-13T02:36:29.265Z,31.13
2023-01-13T02:36:53.835Z,29.85
2023-01-13T02:37:18.742Z,29.40
2023-01-13T02:37:43.068Z,32.45
2023-01-13T02:38:05.884Z,34.22
2023-01-13T02:38:31.695Z,32.08
2023-01-13T02:38:57.928Z,33.35
2023-01-13T02:39:24.240Z,33.00
2023-01-13T02:39:51.145Z,34.15
2023-01-13T02:40:15.692Z,33.60
2023-01-13T02:40:41.289Z,33.55
2023-01-13T02:41:25.290Z,34.05
2023-01-13T02:42:08.942Z,33.80
2023-01-13T02:42:51.359Z,33.25
2023-01-13T02:43:36.009Z,34.55
2023-01-13T02:44:08.373Z,30.63
2023-01-13T02:44:35.885Z,32.17
2023-01-13T02:45:00.499Z,31.83
2023-01-13T02:45:24.969Z,30.13
2023-01-13T02:45:50.278Z,35.17
2023-01-13T02:46:15.259Z,31.17
2023-01-13T02:46:43.584Z,30.60
2023-01-13T02:47:08.998Z,32.00
2023-01-13T02:47:32.523Z,33.70
2023-01-13T02:47:56.036Z,33.50
2023-01-13T02:48:18.865Z,32.55
2023-01-13T02:48:41.786Z,30.38
2023-01-13T02:49:07.574Z,30.30
2023-01-13T02:49:33.848Z,33.75
2023-01-13T02:49:58.544Z,31.58
2023-01-13T02:50:22.741Z,32.65
2023-01-13T02:50:49.045Z,31.15
2023-01-13T02:51:13.931Z,28.58
2023-01-13T02:51:36.746Z,30.50
2023-01-13T02:52:03.325Z,30.40
2023-01-13T02:52:28.474Z,32.83
2023-01-13T02:52:52.495Z,31.60
2023-01-13T02:53:17.881Z,30.48
2023-01-13T02:53:41.965Z,33.30
2023-01-13T02:54:06.771Z,31.92
2023-01-13T02:54:29.619Z,32.15
2023-01-13T02:54:56.094Z,32.97
2023-01-13T02:55:20.334Z,36.45
2023-01-13T02:55:46.401Z,33.25
2023-01-13T02:56:09.145Z,32.92
2023-01-13T02:56:31.902Z,32.13
2023-01-13T02:56:54.648Z,33.75
2023-01-13T02:57:17.616Z,34.67
2023-01-13T02:57:40.374Z,31.30
2023-01-13T02:58:03.391Z,33.33
2023-01-13T02:58:28.940Z,32.50
2023-01-13T02:58:51.687Z,32.35
2023-01-13T02:59:14.410Z,32.60
2023-01-13T02:59:38.528Z,35.50
2023-01-13T03:00:01.288Z,32.22
2023-01-13T03:00:24.162Z,35.17
2023-01-13T03:00:46.940Z,32.85
2023-01-13T03:01:09.798Z,32.80
2023-01-13T03:01:32.981Z,34.80
2023-01-13T03:01:58.087Z,34.92
2023-01-13T03:02:21.663Z,34.58
2023-01-13T03:02:44.646Z,34.20
2023-01-13T03:03:07.519Z,32.13
2023-01-13T03:03:30.336Z,31.23
2023-01-13T03:03:53.090Z,33.72
2023-01-13T03:04:31.371Z,34.35
2023-01-13T03:04:55.804Z,31.95
2023-01-13T03:05:18.593Z,32.13
2023-01-13T03:05:41.687Z,31.55
2023-01-13T03:06:09.732Z,32.55
2023-01-13T03:06:37.421Z,31.55
2023-01-13T03:07:03.575Z,30.95
2023-01-13T03:07:56.366Z,31.15
2023-01-13T03:08:27.699Z,32.25
2023-01-13T03:08:50.806Z,30.50
2023-01-13T03:09:17.140Z,31.30
2023-01-13T03:09:41.765Z,31.67
2023-01-13T03:10:07.727Z,31.15
2023-01-13T03:10:44.481Z,30.98
2023-01-13T03:11:08.573Z,30.85
2023-01-13T03:11:34.589Z,34.33
2023-01-13T03:12:02.585Z,35.85
2023-01-13T03:12:29.865Z,32.17
2023-01-13T03:12:56.775Z,31.58
2023-01-13T03:13:30.311Z,29.67
2023-01-13T03:14:02.446Z,33.05
2023-01-13T03:14:30.544Z,33.70
2023-01-13T03:14:56.974Z,29.23
2023-01-13T03:15:23.700Z,29.63
2023-01-13T03:15:49.790Z,29.05
2023-01-13T03:16:18.294Z,29.88
2023-01-13T03:16:58.611Z,34.33
2023-01-13T03:17:24.470Z,32.95
2023-01-13T03:17:51.109Z,29.02
2023-01-13T03:18:30.746Z,31.08
2023-01-13T03:18:58.271Z,31.38
2023-01-13T03:19:31.636Z,32.75
2023-01-13T03:19:57.377Z,29.83
2023-01-13T03:20:23.377Z,33.08
2023-01-13T03:20:49.959Z,33.42
2023-01-13T03:21:16.290Z,30.10
2023-01-13T03:21:40.944Z,32.03
2023-01-13T03:22:12.191Z,32.58
2023-01-13T03:22:36.569Z,32.67
2023-01-13T03:23:03.045Z,32.55
2023-01-13T03:23:29.694Z,31.83
2023-01-13T03:23:53.518Z,29.88
2023-01-13T03:24:19.876Z,30.15
2023-01-13T03:24:45.136Z,30.02
2023-01-13T03:25:10.152Z,31.63
2023-01-13T03:25:34.575Z,30.33
2023-01-13T03:26:02.059Z,28.88
2023-01-13T03:26:28.843Z,29.83
2023-01-13T03:26:53.031Z,30.30
2023-01-13T03:27:17.129Z,28.60
2023-01-13T03:27:45.705Z,30.48
2023-01-13T03:28:10.903Z,30.30
2023-01-13T03:28:37.226Z,32.17
2023-01-13T03:29:03.150Z,33.05
2023-01-13T03:29:27.146Z,30.15
2023-01-13T03:29:50.796Z,29.70
2023-01-13T03:30:17.313Z,31.58
2023-01-13T03:30:42.318Z,31.27
2023-01-13T03:31:07.351Z,31.67
2023-01-13T03:31:31.542Z,31.17
2023-01-13T03:31:57.847Z,29.67
2023-01-13T03:32:23.387Z,30.42
2023-01-13T03:32:46.886Z,31.70
2023-01-13T03:33:11.812Z,31.55
2023-01-13T03:33:36.655Z,32.05
2023-01-13T03:34:00.524Z,30.38
2023-01-13T03:34:24.645Z,32.13
2023-01-13T03:34:49.340Z,29.80
2023-01-13T03:35:13.632Z,28.73
2023-01-13T03:35:38.288Z,30.83
2023-01-13T03:36:03.606Z,30.95
2023-01-13T03:36:26.954Z,30.77
2023-01-13T03:36:50.953Z,33.85
2023-01-13T03:37:15.440Z,31.67
2023-01-13T03:37:40.182Z,33.83
2023-01-13T03:38:05.157Z,30.30
2023-01-13T03:38:29.817Z,31.00
2023-01-13T03:38:54.003Z,32.38
2023-01-13T03:39:18.067Z,31.42
2023-01-13T03:39:43.681Z,31.85
2023-01-13T03:40:09.371Z,31.67
2023-01-13T03:40:34.014Z,31.80
2023-01-13T03:40:57.966Z,30.70
2023-01-13T03:41:23.215Z,30.52
2023-01-13T03:41:49.149Z,33.10
2023-01-13T03:42:13.489Z,33.47
2023-01-13T03:42:36.495Z,33.53
2023-01-13T03:43:21.207Z,32.88
2023-01-13T03:44:05.688Z,32.47
2023-01-13T03:44:33.923Z,33.67
2023-01-13T03:44:59.549Z,31.20
2023-01-13T03:45:23.792Z,31.52
2023-01-13T03:45:47.251Z,28.60
2023-01-13T03:46:12.325Z,30.20
2023-01-13T03:46:39.131Z,31.75
2023-01-13T03:47:07.283Z,32.10
2023-01-13T03:47:35.135Z,30.08
2023-01-13T03:47:58.005Z,29.83
2023-01-13T03:48:20.849Z,31.00
2023-01-13T03:48:43.695Z,31.15
2023-01-13T03:49:07.388Z,33.45
2023-01-13T03:49:34.103Z,30.65
2023-01-13T03:49:59.637Z,32.58
2023-01-13T03:50:23.709Z,33.28
2023-01-13T03:50:47.698Z,32.03
2023-01-13T03:51:13.319Z,34.90
2023-01-13T03:51:36.698Z,32.63
2023-01-13T03:52:01.637Z,33.85
2023-01-13T03:52:26.436Z,31.50
2023-01-13T03:52:50.747Z,30.27
2023-01-13T03:53:15.607Z,30.35
2023-01-13T03:53:39.544Z,33.88
2023-01-13T03:54:05.305Z,30.92
2023-01-13T03:54:28.716Z,31.13
2023-01-13T03:54:53.832Z,30.48
2023-01-13T03:55:20.653Z,31.67
2023-01-13T03:55:45.367Z,30.88
2023-01-13T03:56:10.260Z,31.45
2023-01-13T03:56:35.391Z,34.67
2023-01-13T03:56:59.689Z,30.65
2023-01-13T03:57:24.715Z,29.83
2023-01-13T03:57:49.339Z,29.58
2023-01-13T03:58:14.677Z,31.52
2023-01-13T03:58:39.497Z,33.28
2023-01-13T03:59:02.944Z,30.88
2023-01-13T03:59:29.130Z,33.08
2023-01-13T03:59:52.586Z,31.42
2023-01-13T04:00:15.796Z,29.08
2023-01-13T04:00:44.661Z,30.83
2023-01-13T04:01:12.468Z,33.22
2023-01-13T04:01:39.039Z,31.48
2023-01-13T04:02:04.218Z,31.67
2023-01-13T04:02:33.478Z,30.25
2023-01-13T04:02:57.986Z,30.73
2023-01-13T04:03:23.592Z,34.05
2023-01-13T04:03:49.827Z,33.90
2023-01-13T04:04:15.073Z,33.22
2023-01-13T04:04:40.054Z,33.85
2023-01-13T04:05:03.709Z,33.13
2023-01-13T04:05:26.656Z,35.65
2023-01-13T04:05:51.542Z,35.05
2023-01-13T04:06:16.341Z,34.08
2023-01-13T04:06:42.269Z,33.25
2023-01-13T04:07:10.435Z,35.45
2023-01-13T04:07:42.526Z,35.30
2023-01-13T04:08:08.026Z,33.95
2023-01-13T04:08:31.105Z,33.83
2023-01-13T04:08:57.084Z,33.35
2023-01-13T04:09:22.748Z,34.28
2023-01-13T04:09:50.265Z,35.22
2023-01-13T04:10:13.032Z,33.08
2023-01-13T04:10:39.095Z,31.88
2023-01-13T04:11:04.013Z,31.40
2023-01-13T04:11:29.743Z,29.70
2023-01-13T04:11:54.252Z,33.03
2023-01-13T04:12:20.200Z,33.85
2023-01-13T04:13:04.308Z,29.30
2023-01-13T04:13:29.320Z,34.42
2023-01-13T04:13:52.044Z,29.92
2023-01-13T04:14:14.868Z,30.83
2023-01-13T04:14:37.664Z,32.97
2023-01-13T04:15:01.341Z,33.28
2023-01-13T04:15:25.598Z,31.65
2023-01-13T04:15:49.884Z,31.38
2023-01-13T04:16:15.390Z,32.05
2023-01-13T04:16:38.095Z,33.08
2023-01-13T04:17:00.817Z,33.78
2023-01-13T04:17:24.751Z,32.65
2023-01-13T04:17:47.588Z,32.42
2023-01-13T04:18:12.338Z,32.33
2023-01-13T04:18:37.488Z,33.40
2023-01-13T04:19:00.253Z,33.33
2023-01-13T04:19:22.985Z,32.13
2023-01-13T04:19:45.781Z,34.25
2023-01-13T04:20:09.932Z,34.65
2023-01-13T04:20:32.683Z,33.70
2023-01-13T04:20:57.529Z,32.22
2023-01-13T04:21:20.286Z,34.38
2023-01-13T04:21:43.100Z,32.50
2023-01-13T04:22:05.819Z,35.17
2023-01-13T04:22:28.606Z,32.55
2023-01-13T04:22:51.381Z,31.88
2023-01-13T04:23:14.245Z,31.10
2023-01-13T04:23:37.057Z,31.42
2023-01-13T04:23:59.865Z,31.63
2023-01-13T04:24:22.656Z,35.05
2023-01-13T04:24:45.447Z,35.22
2023-01-13T04:25:10.487Z,33.83
2023-01-13T04:25:33.311Z,30.98
2023-01-13T04:25:56.050Z,32.63
2023-01-13T04:26:20.066Z,32.60
2023-01-13T04:26:42.836Z,31.55
2023-01-13T04:27:06.337Z,31.73
2023-01-13T04:27:29.098Z,33.75
2023-01-13T04:27:51.914Z,33.67
2023-01-13T04:28:14.896Z,34.85
2023-01-13T04:28:37.625Z,33.45
2023-01-13T04:29:00.347Z,30.60
2023-01-13T04:29:23.465Z,32.97
2023-01-13T04:29:46.223Z,32.92
2023-01-13T04:30:11.564Z,30.40
2023-01-13T04:30:34.240Z,31.08
2023-01-13T04:30:58.472Z,34.03
2023-01-13T04:31:21.488Z,30.00
2023-01-13T04:31:44.383Z,30.08
2023-01-13T04:32:07.140Z,30.35
2023-01-13T04:32:29.931Z,28.33
2023-01-13T04:32:52.665Z,28.52
2023-01-13T04:33:16.100Z,25.35
2023-01-13T04:33:38.906Z,28.88
2023-01-13T04:34:01.673Z,29.17
2023-01-13T04:34:25.818Z,28.00
2023-01-13T04:34:49.801Z,28.20
2023-01-13T04:35:12.575Z,29.75
2023-01-13T04:35:35.543Z,30.75
2023-01-13T04:35:58.285Z,32.28
2023-01-13T04:36:25.213Z,29.00
2023-01-13T04:36:47.988Z,27.50
2023-01-13T04:37:10.741Z,28.42
2023-01-13T04:37:33.537Z,29.48
2023-01-13T04:37:56.382Z,25.92
2023-01-13T04:38:20.940Z,29.50
2023-01-13T04:38:43.660Z,29.80
2023-01-13T04:39:06.593Z,31.45
2023-01-13T04:39:29.380Z,29.17
2023-01-13T04:39:54.671Z,29.98
2023-01-13T04:40:17.559Z,25.45
2023-01-13T04:40:40.446Z,27.98
2023-01-13T04:41:03.206Z,30.30
2023-01-13T04:41:25.952Z,28.92
2023-01-13T04:41:57.891Z,26.63
2023-01-13T04:42:20.685Z,31.08
2023-01-13T04:42:44.066Z,30.73
2023-01-13T04:43:06.817Z,28.40
2023-01-13T04:43:29.587Z,27.30
2023-01-13T04:43:52.367Z,29.13
2023-01-13T04:44:15.231Z,27.85
2023-01-13T04:44:38.011Z,26.33
2023-01-13T04:45:00.929Z,28.30
2023-01-13T04:45:23.665Z,28.45
2023-01-13T04:45:46.497Z,27.95
2023-01-13T04:46:10.906Z,26.80
2023-01-13T04:46:33.757Z,25.77
2023-01-13T04:46:56.495Z,28.13
2023-01-13T04:47:19.320Z,26.70
2023-01-13T04:47:42.094Z,25.55
2023-01-13T04:48:05.192Z,26.55
2023-01-13T04:48:27.981Z,26.52
2023-01-13T04:48:50.777Z,26.92
2023-01-13T04:49:13.619Z,25.20
2023-01-13T04:49:36.470Z,24.45
2023-01-13T04:49:59.240Z,25.95
2023-01-13T04:50:22.927Z,28.33
2023-01-13T04:50:46.703Z,26.02
2023-01-13T04:51:09.456Z,26.75
2023-01-13T04:51:32.231Z,24.77
2023-01-13T04:51:55.959Z,24.08
2023-01-13T04:52:18.742Z,27.73
2023-01-13T04:52:41.509Z,28.50
2023-01-13T04:53:04.408Z,25.38
2023-01-13T04:53:27.182Z,24.88
2023-01-13T04:53:52.495Z,25.67
2023-01-13T04:54:16.552Z,26.45
2023-01-13T04:54:39.931Z,25.75
2023-01-13T04:55:02.775Z,24.63
2023-01-13T04:55:25.618Z,24.58
2023-01-13T04:55:49.952Z,25.80
2023-01-13T04:56:12.987Z,27.88
2023-01-13T04:56:35.710Z,30.42
2023-01-13T04:56:58.439Z,26.02
2023-01-13T04:57:21.180Z,24.73
2023-01-13T04:57:43.908Z,28.50
2023-01-13T04:58:07.430Z,28.98
2023-01-13T04:58:30.232Z,24.55
2023-01-13T04:58:53.031Z,26.75
2023-01-13T04:59:15.765Z,27.42
2023-01-13T04:59:38.495Z,27.50
2023-01-13T05:00:01.841Z,26.23
2023-01-13T05:00:24.540Z,25.88
2023-01-13T05:00:47.286Z,29.30
2023-01-13T05:01:11.549Z,25.77
2023-01-13T05:01:34.647Z,24.30
2023-01-13T05:01:57.557Z,25.58
2023-01-13T05:02:20.442Z,26.65
2023-01-13T05:02:43.431Z,26.58
2023-01-13T05:03:06.235Z,28.35
2023-01-13T05:03:29.041Z,28.92
2023-01-13T05:03:51.864Z,27.27
2023-01-13T05:04:15.891Z,26.98
2023-01-13T05:04:38.588Z,26.27
2023-01-13T05:05:01.486Z,26.35
2023-01-13T05:05:24.336Z,27.10
2023-01-13T05:05:50.902Z,26.13
2023-01-13T05:06:13.611Z,24.23
2023-01-13T05:06:36.345Z,22.35
2023-01-13T05:06:59.077Z,26.65
2023-01-13T05:07:21.816Z,27.65
2023-01-13T05:07:44.506Z,27.75
2023-01-13T05:08:07.259Z,25.95
2023-01-13T05:08:29.981Z,24.50
2023-01-13T05:08:52.863Z,27.10
2023-01-13T05:09:15.925Z,23.88
2023-01-13T05:09:38.702Z,24.23
2023-01-13T05:10:01.434Z,27.13
2023-01-13T05:10:24.324Z,28.13
2023-01-13T05:10:47.219Z,24.98
2023-01-13T05:11:28.369Z,25.42
2023-01-13T05:12:09.981Z,26.75
2023-01-13T05:12:51.267Z,24.77
2023-01-13T05:13:32.763Z,25.77
2023-01-13T05:14:13.907Z,26.63
2023-01-13T05:14:55.403Z,24.50
2023-01-13T05:15:37.234Z,24.83
2023-01-13T05:16:20.105Z,25.15
2023-01-13T05:17:06.207Z,23.08
2023-01-13T05:17:28.917Z,24.38
2023-01-13T05:17:51.894Z,23.98
2023-01-13T05:18:14.803Z,22.88
2023-01-13T05:18:37.628Z,24.92
2023-01-13T05:19:00.612Z,23.65
2023-01-13T05:19:23.379Z,24.55
2023-01-13T05:19:46.608Z,25.58
2023-01-13T05:20:11.249Z,23.98
2023-01-13T05:20:34.111Z,23.50
2023-01-13T05:20:56.953Z,24.00
2023-01-13T05:21:38.426Z,24.33
2023-01-13T05:22:33.775Z,24.17
2023-01-13T05:23:15.433Z,24.13
2023-01-13T05:23:56.664Z,21.88
2023-01-13T05:24:38.291Z,22.45
2023-01-13T05:25:20.033Z,26.17
2023-01-13T05:25:44.549Z,22.17
2023-01-13T05:26:07.850Z,22.05
2023-01-13T05:26:33.351Z,23.17
2023-01-13T05:26:56.089Z,22.73
2023-01-13T05:27:18.821Z,22.15
2023-01-13T05:27:41.631Z,21.52